Terminal Aerodrome Forecast
Issued by NWS

Home | Current Version | Previous Version | Graphics & Text | Print | Product List | Glossary Off
Versions: 1 2 3 4 5 6 7 8 9 10 11 12 13 14 15 16 17 18 19

000
FTUS43 KMPX 292009 AAA
TAFRNH
TAF AMD
KRNH 292009Z 2920/3018 32010KT 6SM -SHRA SCT012 OVC025
     FM292100 33010G19KT 5SM -SHRA BR BKN012 OVC020
     FM300300 35011G19KT P6SM OVC020
     FM300900 01010KT P6SM SCT025 OVC050
     FM301400 02012G18KT P6SM SCT035 SCT250=

USA.gov is the U.S. government's official web portal to all federal, state and local government web resources and services.